createdAt,value
2022-07-26T00:01:02.234Z,42.71
2022-07-26T00:03:30.151Z,42.77
2022-07-26T00:05:57.885Z,42.93
2022-07-26T00:08:27.112Z,42.75
2022-07-26T00:10:54.822Z,43.03
2022-07-26T00:13:22.856Z,43.08
2022-07-26T00:15:51.146Z,43.19
2022-07-26T00:18:19.202Z,43.24
2022-07-26T00:20:47.051Z,43.16
2022-07-26T00:23:14.922Z,43.42
2022-07-26T00:25:44.137Z,43.41
2022-07-26T00:28:12.043Z,43.37
2022-07-26T00:30:40.169Z,43.51
2022-07-26T00:33:08.431Z,43.45
2022-07-26T00:35:36.208Z,43.46
2022-07-26T00:38:03.984Z,43.42
2022-07-26T00:40:32.088Z,43.54
2022-07-26T00:43:01.229Z,43.63
2022-07-26T00:45:28.962Z,43.48
2022-07-26T00:47:56.930Z,43.43
2022-07-26T00:50:24.643Z,43.64
2022-07-26T00:52:52.306Z,43.59
2022-07-26T00:55:21.043Z,43.77
2022-07-26T00:57:48.767Z,43.79
2022-07-26T01:00:20.757Z,43.91
2022-07-26T01:02:48.879Z,43.92
2022-07-26T01:05:17.299Z,44.19
2022-07-26T01:07:45.212Z,43.94
2022-07-26T01:10:13.193Z,43.79
2022-07-26T01:12:42.075Z,43.99
2022-07-26T01:15:11.681Z,44.23
2022-07-26T01:17:41.654Z,44.07
2022-07-26T01:20:11.943Z,44.28
2022-07-26T01:22:41.431Z,44.35
2022-07-26T01:25:11.445Z,44.34
2022-07-26T01:27:40.192Z,44.33
2022-07-26T01:30:10.581Z,44.51
2022-07-26T01:32:38.719Z,44.69
2022-07-26T01:35:08.987Z,44.54
2022-07-26T01:37:36.692Z,44.63
2022-07-26T01:40:07.143Z,44.71
2022-07-26T01:42:35.112Z,44.71
2022-07-26T01:45:02.870Z,45.16
2022-07-26T01:47:30.608Z,45.29
2022-07-26T01:49:58.388Z,45.31
2022-07-26T01:52:27.639Z,45.44
2022-07-26T01:54:55.310Z,45.65
2022-07-26T01:57:24.508Z,45.70
2022-07-26T01:59:52.266Z,45.83
2022-07-26T02:02:20.102Z,45.75
2022-07-26T02:05:00.025Z,45.89
2022-07-26T02:07:28.619Z,46.20
2022-07-26T02:09:57.478Z,46.16
2022-07-26T02:12:27.196Z,46.19
2022-07-26T02:14:54.938Z,46.40
2022-07-26T02:17:22.802Z,46.48
2022-07-26T02:19:50.561Z,45.98
2022-07-26T02:22:18.965Z,46.35
2022-07-26T02:24:47.545Z,46.55
2022-07-26T02:27:15.660Z,46.39
2022-07-26T02:29:45.304Z,46.26
2022-07-26T02:32:13.004Z,46.07
2022-07-26T02:34:40.757Z,46.12
2022-07-26T02:37:08.532Z,45.69
2022-07-26T02:39:36.264Z,45.85
2022-07-26T02:42:04.567Z,45.76
2022-07-26T02:44:32.345Z,45.81
2022-07-26T02:47:01.398Z,45.86
2022-07-26T02:49:29.093Z,45.97
2022-07-26T02:51:56.712Z,45.77
2022-07-26T02:54:24.407Z,45.78
2022-07-26T02:56:52.153Z,45.67
2022-07-26T02:59:19.921Z,45.69
2022-07-26T03:01:47.683Z,45.91
2022-07-26T03:04:16.946Z,46.07
2022-07-26T03:06:44.699Z,46.42
2022-07-26T03:09:12.853Z,46.51
2022-07-26T03:11:40.527Z,46.14
2022-07-26T03:14:08.561Z,46.30
2022-07-26T03:16:36.600Z,46.35
2022-07-26T03:19:04.490Z,46.52
2022-07-26T03:21:33.558Z,46.69
2022-07-26T03:24:01.330Z,47.15
2022-07-26T03:26:29.317Z,47.45
2022-07-26T03:28:57.134Z,48.18
2022-07-26T03:31:25.603Z,48.52
2022-07-26T03:33:53.421Z,48.23
2022-07-26T03:36:21.188Z,48.15
2022-07-26T03:38:50.302Z,47.87
2022-07-26T03:41:18.023Z,48.17
2022-07-26T03:43:45.663Z,48.26
2022-07-26T03:46:13.425Z,48.96
2022-07-26T03:48:41.292Z,48.16
2022-07-26T03:51:09.032Z,48.27
2022-07-26T03:53:36.815Z,48.06
2022-07-26T03:56:23.495Z,48.11
2022-07-26T03:58:51.182Z,47.76
2022-07-26T04:01:19.055Z,48.00
2022-07-26T04:03:47.896Z,47.90
2022-07-26T04:06:16.299Z,47.86
2022-07-26T04:08:44.040Z,47.96
2022-07-26T04:13:41.048Z,47.83
2022-07-26T04:16:09.402Z,48.23
2022-07-26T04:18:37.200Z,47.93
2022-07-26T04:21:05.332Z,48.00
2022-07-26T04:23:33.020Z,47.77
2022-07-26T04:26:00.821Z,47.56
2022-07-26T04:28:29.873Z,47.45
2022-07-26T04:30:58.129Z,47.52
2022-07-26T04:33:26.074Z,47.49
2022-07-26T04:35:53.831Z,47.58
2022-07-26T04:38:21.534Z,47.58
2022-07-26T04:40:50.932Z,47.43
2022-07-26T04:43:18.747Z,47.46
2022-07-26T04:45:48.020Z,47.38
2022-07-26T04:48:16.173Z,47.50
2022-07-26T04:50:44.294Z,47.48
2022-07-26T04:53:12.055Z,47.39
2022-07-26T04:55:40.197Z,47.22
2022-07-26T04:58:08.195Z,47.31
2022-07-26T05:00:51.303Z,47.27
2022-07-26T05:03:25.998Z,47.21
2022-07-26T05:05:53.972Z,47.44
2022-07-26T05:08:21.629Z,47.63
2022-07-26T05:10:54.906Z,47.76
2022-07-26T05:13:29.778Z,47.54
2022-07-26T05:15:58.946Z,47.63
2022-07-26T05:18:31.592Z,47.31
2022-07-26T05:21:10.405Z,47.44
2022-07-26T05:23:38.151Z,47.54
2022-07-26T05:26:06.142Z,47.41
2022-07-26T05:28:33.851Z,47.77
2022-07-26T05:31:01.682Z,47.88
2022-07-26T05:33:30.978Z,48.17
2022-07-26T05:35:58.936Z,48.00
2022-07-26T05:38:27.440Z,47.76
2022-07-26T05:40:55.089Z,47.82
2022-07-26T05:43:22.775Z,47.97
2022-07-26T05:45:50.570Z,47.76
2022-07-26T05:48:18.387Z,47.84
2022-07-26T05:53:17.699Z,47.72
2022-07-26T05:55:45.354Z,47.58
2022-07-26T05:58:13.258Z,47.52
2022-07-26T06:00:43.174Z,47.13
2022-07-26T06:03:32.707Z,46.83
2022-07-26T06:06:04.224Z,46.18
2022-07-26T06:08:32.072Z,45.78
2022-07-26T06:11:01.998Z,45.78
2022-07-26T06:13:29.734Z,45.60
2022-07-26T06:15:57.420Z,45.24
2022-07-26T06:18:25.323Z,45.02
2022-07-26T06:20:53.070Z,45.05
2022-07-26T06:23:33.762Z,44.90
2022-07-26T06:26:03.063Z,44.76
2022-07-26T06:28:30.823Z,45.04
2022-07-26T06:30:58.554Z,45.03
2022-07-26T06:33:26.328Z,45.03
2022-07-26T06:35:54.062Z,44.87
2022-07-26T06:38:23.167Z,45.23
2022-07-26T06:40:51.137Z,45.04
2022-07-26T06:43:18.844Z,44.69
2022-07-26T06:45:46.583Z,45.14
2022-07-26T06:48:14.387Z,45.11
2022-07-26T06:50:42.489Z,45.39
2022-07-26T06:53:10.303Z,45.36
2022-07-26T06:55:39.514Z,45.06
2022-07-26T06:58:07.229Z,44.98
2022-07-26T07:00:35.131Z,44.83
2022-07-26T07:03:02.860Z,44.88
2022-07-26T07:05:31.182Z,45.01
2022-07-26T07:07:59.170Z,45.00
2022-07-26T07:10:26.981Z,44.99
2022-07-26T07:12:56.089Z,44.87
2022-07-26T07:15:23.955Z,44.77
2022-07-26T07:17:52.264Z,44.59
2022-07-26T07:20:20.513Z,45.02
2022-07-26T07:22:48.308Z,44.82
2022-07-26T07:25:16.265Z,45.02
2022-07-26T07:27:44.035Z,44.73
2022-07-26T07:30:14.253Z,44.86
2022-07-26T07:32:42.330Z,44.88
2022-07-26T07:35:12.969Z,44.69
2022-07-26T07:37:53.884Z,44.69
2022-07-26T07:40:22.690Z,44.01
2022-07-26T07:42:50.509Z,44.25
2022-07-26T07:45:19.720Z,44.23
2022-07-26T07:47:47.446Z,44.47
2022-07-26T07:50:15.255Z,44.54
2022-07-26T07:52:45.931Z,44.28
2022-07-26T07:55:36.423Z,44.01
2022-07-26T07:58:01.386Z,43.73
2022-07-26T08:00:30.582Z,43.83
2022-07-26T08:02:58.278Z,43.91
2022-07-26T08:05:25.948Z,43.58
2022-07-26T08:07:54.085Z,42.95
2022-07-26T08:10:22.115Z,43.07
2022-07-26T08:12:51.333Z,42.87
2022-07-26T08:15:21.212Z,42.90
2022-07-26T08:17:54.057Z,42.49
2022-07-26T08:20:23.755Z,42.55
2022-07-26T08:22:53.254Z,42.32
2022-07-26T08:25:21.197Z,42.34
2022-07-26T08:28:03.159Z,42.32
2022-07-26T08:30:32.035Z,41.52
2022-07-26T08:33:01.984Z,41.76
2022-07-26T08:35:30.507Z,41.48
2022-07-26T08:37:58.442Z,41.36
2022-07-26T08:40:26.215Z,41.47
2022-07-26T08:42:55.789Z,41.36
2022-07-26T08:45:24.284Z,40.92
2022-07-26T08:48:15.960Z,40.75
2022-07-26T08:50:42.424Z,41.04
2022-07-26T08:53:12.973Z,40.67
2022-07-26T08:58:28.916Z,40.91
2022-07-26T09:01:08.177Z,40.83
2022-07-26T09:03:37.858Z,40.83
2022-07-26T09:06:16.715Z,40.57
2022-07-26T09:08:45.519Z,41.09
2022-07-26T09:11:28.627Z,40.60
2022-07-26T09:13:58.304Z,40.42
2022-07-26T09:16:26.673Z,40.35
2022-07-26T09:18:54.735Z,40.25
2022-07-26T09:21:31.730Z,40.41
2022-07-26T09:24:00.858Z,39.77
2022-07-26T09:26:29.176Z,39.71
2022-07-26T09:29:06.519Z,39.44
2022-07-26T09:31:35.052Z,39.30
2022-07-26T09:34:03.404Z,39.45
2022-07-26T09:36:33.830Z,39.08
2022-07-26T09:39:03.776Z,38.81
2022-07-26T09:41:33.103Z,39.04
2022-07-26T09:44:01.962Z,38.52
2022-07-26T09:46:30.616Z,38.41
2022-07-26T09:49:10.422Z,39.05
2022-07-26T09:51:43.317Z,38.92
2022-07-26T09:54:13.490Z,38.79
2022-07-26T09:56:45.333Z,38.38
2022-07-26T09:59:14.946Z,37.89
2022-07-26T10:01:42.923Z,38.46
2022-07-26T10:04:11.729Z,37.86
2022-07-26T10:06:41.884Z,37.98
2022-07-26T10:09:09.963Z,38.27
2022-07-26T10:11:43.327Z,38.25
2022-07-26T10:14:38.507Z,38.36
2022-07-26T10:17:45.712Z,38.85
2022-07-26T10:20:46.594Z,38.69
2022-07-26T10:23:41.255Z,38.17
2022-07-26T10:26:11.791Z,37.99
2022-07-26T10:28:42.316Z,38.29
2022-07-26T10:31:31.244Z,38.21
2022-07-26T10:34:01.567Z,37.89
2022-07-26T10:36:33.422Z,37.51
2022-07-26T10:39:09.932Z,37.18
2022-07-26T10:41:43.100Z,37.45
2022-07-26T10:44:26.424Z,37.34
2022-07-26T10:47:19.385Z,36.83
2022-07-26T10:49:57.986Z,36.09
2022-07-26T10:52:28.069Z,36.35
2022-07-26T10:55:19.106Z,36.78
2022-07-26T10:57:49.480Z,37.21
2022-07-26T11:00:22.760Z,36.66
2022-07-26T11:02:55.465Z,36.30
2022-07-26T11:05:28.761Z,36.62
2022-07-26T11:07:59.795Z,36.46
2022-07-26T11:10:31.672Z,36.34
2022-07-26T11:13:07.826Z,36.17
2022-07-26T11:15:37.155Z,36.61
2022-07-26T11:18:27.662Z,37.29
2022-07-26T11:20:57.252Z,36.83
2022-07-26T11:23:33.674Z,37.14
2022-07-26T11:26:05.564Z,37.18
2022-07-26T11:28:55.318Z,37.22
2022-07-26T11:31:51.593Z,37.53
2022-07-26T11:34:18.857Z,37.50
2022-07-26T11:36:47.361Z,37.33
2022-07-26T11:39:16.307Z,37.58
2022-07-26T11:41:45.368Z,38.21
2022-07-26T11:44:17.366Z,38.50
2022-07-26T11:46:47.682Z,38.69
2022-07-26T11:49:17.586Z,38.72
2022-07-26T11:51:54.043Z,39.08
2022-07-26T11:54:21.943Z,38.70
2022-07-26T11:56:56.644Z,38.40
2022-07-26T11:59:26.455Z,37.51
2022-07-26T12:01:54.830Z,37.19
2022-07-26T12:04:24.933Z,37.32
2022-07-26T12:06:54.181Z,37.22
2022-07-26T12:09:33.748Z,37.14
2022-07-26T12:12:04.099Z,36.97
2022-07-26T12:14:33.345Z,36.46
2022-07-26T12:17:11.679Z,37.16
2022-07-26T12:19:39.416Z,37.21
2022-07-26T12:22:13.120Z,37.11
2022-07-26T12:24:47.055Z,36.89
2022-07-26T12:27:19.577Z,36.64
2022-07-26T12:29:49.709Z,36.67
2022-07-26T12:32:19.641Z,36.95
2022-07-26T12:34:59.235Z,37.16
2022-07-26T12:37:39.575Z,37.28
2022-07-26T12:40:10.458Z,36.92
2022-07-26T12:42:42.249Z,36.68
2022-07-26T12:45:12.726Z,36.55
2022-07-26T12:47:42.120Z,36.67
2022-07-26T12:50:12.093Z,36.61
2022-07-26T12:52:40.224Z,36.90
2022-07-26T12:55:13.899Z,36.98
2022-07-26T12:57:46.069Z,36.67
2022-07-26T13:00:17.460Z,36.53
2022-07-26T13:02:45.912Z,37.05
2022-07-26T13:05:14.559Z,36.93
2022-07-26T13:07:42.782Z,36.74
2022-07-26T13:13:01.632Z,36.24
2022-07-26T13:15:35.961Z,36.56
2022-07-26T13:18:07.101Z,36.31
2022-07-26T13:20:35.216Z,36.03
2022-07-26T13:23:03.045Z,35.36
2022-07-26T13:25:34.528Z,35.00
2022-07-26T13:28:08.153Z,34.94
2022-07-26T13:30:37.618Z,35.13
2022-07-26T13:33:05.564Z,34.91
2022-07-26T13:35:33.416Z,34.21
2022-07-26T13:38:01.145Z,34.25
2022-07-26T13:40:31.535Z,34.31
2022-07-26T13:42:59.766Z,34.59
2022-07-26T13:45:29.887Z,34.12
2022-07-26T13:47:58.852Z,34.00
2022-07-26T13:50:27.591Z,34.46
2022-07-26T13:52:57.099Z,35.03
2022-07-26T13:55:25.884Z,34.47
2022-07-26T13:57:56.295Z,34.08
2022-07-26T14:00:25.745Z,34.10
2022-07-26T14:02:55.397Z,33.75
2022-07-26T14:05:23.438Z,33.33
2022-07-26T14:07:51.172Z,33.23
2022-07-26T14:10:19.561Z,33.78
2022-07-26T14:12:48.151Z,34.24
2022-07-26T14:15:21.613Z,34.33
2022-07-26T14:17:50.351Z,34.41
2022-07-26T14:20:19.929Z,34.11
2022-07-26T14:22:48.049Z,33.33
2022-07-26T14:25:15.904Z,33.09
2022-07-26T14:27:43.697Z,32.69
2022-07-26T14:30:12.479Z,32.18
2022-07-26T14:32:40.210Z,32.32
2022-07-26T14:35:09.233Z,32.49
2022-07-26T14:37:41.794Z,32.46
2022-07-26T14:40:16.552Z,32.42
2022-07-26T14:42:45.358Z,32.71
2022-07-26T14:45:13.539Z,33.01
2022-07-26T14:47:41.396Z,33.31
2022-07-26T14:50:11.059Z,33.15
2022-07-26T14:52:41.891Z,33.35
2022-07-26T14:55:10.594Z,33.11
2022-07-26T14:57:39.584Z,33.20
2022-07-26T15:00:09.743Z,33.26
2022-07-26T15:02:39.791Z,33.50
2022-07-26T15:05:07.893Z,33.06
2022-07-26T15:07:35.638Z,33.33
2022-07-26T15:10:05.952Z,33.25
2022-07-26T15:12:34.050Z,33.24
2022-07-26T15:15:01.824Z,33.08
2022-07-26T15:17:29.548Z,33.08
2022-07-26T15:19:57.493Z,33.25
2022-07-26T15:22:25.388Z,32.95
2022-07-26T15:24:53.146Z,33.21
2022-07-26T15:27:22.429Z,32.70
2022-07-26T15:29:51.117Z,33.08
2022-07-26T15:32:20.909Z,33.01
2022-07-26T15:34:48.646Z,33.11
2022-07-26T15:37:16.443Z,33.36
2022-07-26T15:39:44.356Z,33.19
2022-07-26T15:42:12.139Z,33.21
2022-07-26T15:44:44.681Z,33.35
2022-07-26T15:47:15.504Z,33.25
2022-07-26T15:49:58.670Z,32.85
2022-07-26T15:52:26.458Z,32.55
2022-07-26T15:54:54.311Z,32.37
2022-07-26T15:57:22.080Z,32.15
2022-07-26T15:59:51.295Z,31.95
2022-07-26T16:02:19.383Z,31.82
2022-07-26T16:04:47.235Z,31.83
2022-07-26T16:07:15.178Z,32.08
2022-07-26T16:09:42.954Z,32.63
2022-07-26T16:12:11.088Z,32.73
2022-07-26T16:14:38.729Z,31.89
2022-07-26T16:17:07.905Z,32.33
2022-07-26T16:19:35.636Z,32.08
2022-07-26T16:22:03.775Z,32.10
2022-07-26T16:24:31.674Z,32.52
2022-07-26T16:26:59.402Z,32.49
2022-07-26T16:29:27.207Z,32.35
2022-07-26T16:31:56.118Z,32.02
2022-07-26T16:34:25.272Z,32.15
2022-07-26T16:36:53.053Z,31.90
2022-07-26T16:39:20.804Z,32.02
2022-07-26T16:41:48.495Z,32.19
2022-07-26T16:44:16.179Z,32.27
2022-07-26T16:46:44.345Z,32.47
2022-07-26T16:49:13.131Z,32.06
2022-07-26T16:51:42.609Z,32.10
2022-07-26T16:54:10.486Z,32.12
2022-07-26T16:56:38.459Z,31.50
2022-07-26T16:59:10.317Z,31.23
2022-07-26T17:01:38.460Z,31.88
2022-07-26T17:04:06.574Z,32.02
2022-07-26T17:06:34.338Z,32.09
2022-07-26T17:09:03.377Z,31.99
2022-07-26T17:11:31.097Z,32.82
2022-07-26T17:13:58.747Z,33.17
2022-07-26T17:16:26.793Z,33.70
2022-07-26T17:18:55.371Z,34.07
2022-07-26T17:21:23.656Z,34.51
2022-07-26T17:23:51.853Z,35.07
2022-07-26T17:26:21.274Z,35.14
2022-07-26T17:28:49.039Z,35.02
2022-07-26T17:31:16.981Z,35.02
2022-07-26T17:33:44.764Z,35.41
2022-07-26T17:36:26.865Z,35.53
2022-07-26T17:38:55.126Z,35.47
2022-07-26T17:41:32.401Z,35.65
2022-07-26T17:44:02.884Z,35.52
2022-07-26T17:46:32.485Z,35.44
2022-07-26T17:49:00.569Z,35.75
2022-07-26T17:51:28.487Z,36.11
2022-07-26T17:53:56.295Z,36.27
2022-07-26T17:56:25.660Z,36.20
2022-07-26T17:58:53.426Z,36.54
2022-07-26T18:01:21.368Z,36.67
2022-07-26T18:03:49.769Z,36.62
2022-07-26T18:06:18.544Z,36.68
2022-07-26T18:08:46.369Z,36.77
2022-07-26T18:11:14.015Z,36.98
2022-07-26T18:13:43.052Z,37.04
2022-07-26T18:16:10.820Z,37.01
2022-07-26T18:18:38.824Z,36.86
2022-07-26T18:21:06.550Z,36.80
2022-07-26T18:23:34.287Z,36.84
2022-07-26T18:26:04.478Z,36.77
2022-07-26T18:28:32.194Z,36.91
2022-07-26T18:31:01.225Z,36.93
2022-07-26T18:33:32.066Z,36.85
2022-07-26T18:36:00.996Z,36.65
2022-07-26T18:38:28.998Z,36.65
2022-07-26T18:40:56.764Z,36.46
2022-07-26T18:43:24.582Z,36.60
2022-07-26T18:45:52.318Z,36.70
2022-07-26T18:48:22.126Z,37.01
2022-07-26T18:50:52.564Z,36.97
2022-07-26T18:53:20.969Z,37.00
2022-07-26T18:55:49.175Z,37.41
2022-07-26T18:58:17.625Z,37.78
2022-07-26T19:00:49.396Z,38.23
2022-07-26T19:03:17.138Z,38.50
2022-07-26T19:05:46.446Z,38.72
2022-07-26T19:08:14.286Z,38.78
2022-07-26T19:10:42.104Z,39.07
2022-07-26T19:13:09.793Z,39.29
2022-07-26T19:15:37.591Z,39.65
2022-07-26T19:18:13.781Z,39.56
2022-07-26T19:20:41.517Z,39.66
2022-07-26T19:23:11.232Z,39.67
2022-07-26T19:25:39.552Z,39.87
2022-07-26T19:28:08.578Z,39.66
2022-07-26T19:30:37.620Z,40.09
2022-07-26T19:33:06.116Z,40.08
2022-07-26T19:35:33.819Z,40.34
2022-07-26T19:38:01.545Z,40.31
2022-07-26T19:40:30.787Z,40.42
2022-07-26T19:42:58.520Z,42.43
2022-07-26T19:45:26.246Z,42.32
2022-07-26T19:47:54.119Z,41.54
2022-07-26T19:50:22.256Z,40.82
2022-07-26T19:52:49.968Z,40.77
2022-07-26T19:55:17.818Z,40.22
2022-07-26T19:57:46.916Z,40.06
2022-07-26T20:00:15.771Z,40.17
2022-07-26T20:02:43.760Z,40.04
2022-07-26T20:05:13.155Z,40.08
2022-07-26T20:07:41.074Z,40.02
2022-07-26T20:10:09.886Z,39.99
2022-07-26T20:12:38.760Z,39.95
2022-07-26T20:15:10.121Z,39.98
2022-07-26T20:17:39.784Z,40.00
2022-07-26T20:20:08.935Z,40.04
2022-07-26T20:22:36.774Z,40.18
2022-07-26T20:25:04.973Z,40.25
2022-07-26T20:27:35.940Z,40.11
2022-07-26T20:30:05.462Z,40.29
2022-07-26T20:32:34.603Z,40.43
2022-07-26T20:35:02.480Z,40.47
2022-07-26T20:37:30.311Z,40.52
2022-07-26T20:39:58.008Z,40.58
2022-07-26T20:42:28.955Z,40.57
2022-07-26T20:44:57.304Z,40.76
2022-07-26T20:47:24.995Z,40.69
2022-07-26T20:49:54.036Z,40.89
2022-07-26T20:52:26.259Z,41.15
2022-07-26T20:54:53.997Z,40.96
2022-07-26T20:57:22.397Z,40.99
2022-07-26T20:59:50.079Z,41.11
2022-07-26T21:02:17.866Z,41.02
2022-07-26T21:04:46.130Z,41.04
2022-07-26T21:07:15.450Z,40.98
2022-07-26T21:09:43.269Z,41.23
2022-07-26T21:12:11.507Z,41.17
2022-07-26T21:14:39.304Z,41.08
2022-07-26T21:17:11.587Z,41.24
2022-07-26T21:19:40.771Z,41.46
2022-07-26T21:22:09.127Z,41.35
2022-07-26T21:24:38.602Z,41.42
2022-07-26T21:27:07.558Z,41.51
2022-07-26T21:29:39.600Z,41.64
2022-07-26T21:32:07.616Z,42.01
2022-07-26T21:34:35.429Z,42.03
2022-07-26T21:37:04.452Z,42.14
2022-07-26T21:39:32.203Z,42.30
2022-07-26T21:42:01.183Z,42.39
2022-07-26T21:44:29.146Z,42.62
2022-07-26T21:46:56.922Z,42.79
2022-07-26T21:49:24.879Z,42.87
2022-07-26T21:51:52.629Z,42.81
2022-07-26T21:54:20.377Z,43.22
2022-07-26T21:56:48.079Z,43.40
2022-07-26T21:59:17.227Z,43.40
2022-07-26T22:01:44.940Z,43.52
2022-07-26T22:04:12.596Z,43.69
2022-07-26T22:06:40.350Z,43.93
2022-07-26T22:09:08.377Z,44.17
2022-07-26T22:11:36.296Z,44.16
2022-07-26T22:14:04.543Z,44.43
2022-07-26T22:16:33.718Z,44.44
2022-07-26T22:19:02.318Z,44.63
2022-07-26T22:21:30.354Z,44.96
2022-07-26T22:23:58.019Z,44.92
2022-07-26T22:26:27.533Z,45.02
2022-07-26T22:28:55.197Z,45.01
2022-07-26T22:31:22.952Z,45.24
2022-07-26T22:33:52.020Z,45.38
2022-07-26T22:36:19.929Z,45.37
2022-07-26T22:38:47.735Z,45.45
2022-07-26T22:41:15.512Z,45.71
2022-07-26T22:43:44.083Z,45.81
2022-07-26T22:46:11.820Z,45.81
2022-07-26T22:48:42.178Z,45.75
2022-07-26T22:51:13.687Z,45.86
2022-07-26T22:53:41.346Z,46.02
2022-07-26T22:56:09.047Z,45.77
2022-07-26T22:58:36.845Z,45.91
2022-07-26T23:01:05.829Z,46.00
2022-07-26T23:03:33.638Z,45.80
2022-07-26T23:06:04.315Z,45.87
2022-07-26T23:08:47.552Z,46.21
2022-07-26T23:11:15.564Z,46.02
2022-07-26T23:13:43.276Z,45.71
2022-07-26T23:16:10.975Z,45.89
2022-07-26T23:18:38.803Z,45.90
2022-07-26T23:21:06.519Z,46.00
2022-07-26T23:23:34.345Z,45.85
2022-07-26T23:26:03.444Z,45.64
2022-07-26T23:28:36.692Z,45.47
2022-07-26T23:31:07.232Z,45.43
2022-07-26T23:33:50.589Z,45.31
2022-07-26T23:36:22.834Z,45.47
2022-07-26T23:38:50.537Z,45.44
2022-07-26T23:41:19.983Z,45.23
2022-07-26T23:43:47.985Z,45.54
2022-07-26T23:46:15.861Z,45.57
2022-07-26T23:48:43.658Z,45.31
2022-07-26T23:51:11.422Z,44.87
2022-07-26T23:53:39.140Z,45.36
2022-07-26T23:56:07.014Z,45.20
2022-07-26T23:58:36.070Z,45.60
